createdAt,value
2018-07-28T00:00:00.127Z,13.20
2018-07-28T00:02:30.291Z,13.47
2018-07-28T00:05:00.398Z,14.50
2018-07-28T00:07:30.538Z,14.00
2018-07-28T00:10:00.949Z,13.80
2018-07-28T00:12:31.964Z,13.30
2018-07-28T00:15:02.216Z,13.57
2018-07-28T00:17:31.801Z,14.47
2018-07-28T00:20:02.373Z,13.17
2018-07-28T00:22:32.657Z,14.67
2018-07-28T00:25:02.791Z,14.87
2018-07-28T00:27:33.553Z,15.90
2018-07-28T00:30:03.615Z,14.67
2018-07-28T00:32:33.754Z,13.97
2018-07-28T00:35:03.959Z,14.33
2018-07-28T00:37:34.355Z,15.67
2018-07-28T00:40:04.723Z,14.93
2018-07-28T00:42:34.706Z,14.90
2018-07-28T00:45:05.617Z,15.37
2018-07-28T00:47:35.599Z,15.90
2018-07-28T00:50:08.793Z,15.33
2018-07-28T00:52:39.073Z,14.17
2018-07-28T00:55:09.228Z,16.37
2018-07-28T00:57:39.236Z,15.90
2018-07-28T01:00:10.376Z,14.60
2018-07-28T01:02:40.567Z,15.60
2018-07-28T01:05:10.724Z,14.37
2018-07-28T01:07:40.875Z,15.13
2018-07-28T01:10:10.919Z,15.80
2018-07-28T01:12:41.261Z,15.67
2018-07-28T01:15:13.083Z,15.33
2018-07-28T01:17:43.256Z,16.77
2018-07-28T01:20:13.800Z,15.30
2018-07-28T01:22:43.805Z,15.90
2018-07-28T01:25:13.836Z,15.40
2018-07-28T01:27:43.642Z,15.10
2018-07-28T01:30:19.305Z,16.23
2018-07-28T01:32:49.403Z,14.83
2018-07-28T01:35:20.036Z,15.07
2018-07-28T01:37:50.213Z,15.00
2018-07-28T01:40:20.172Z,14.53
2018-07-28T01:42:50.207Z,16.27
2018-07-28T01:45:20.570Z,15.20
2018-07-28T01:47:50.927Z,13.67
2018-07-28T01:50:21.468Z,15.00
2018-07-28T01:52:51.799Z,15.43
2018-07-28T01:55:21.893Z,15.53
2018-07-28T01:57:52.015Z,14.77
2018-07-28T02:00:22.578Z,15.40
2018-07-28T02:02:52.973Z,15.33
2018-07-28T02:05:23.035Z,15.63
2018-07-28T02:07:52.307Z,14.57
2018-07-28T02:10:22.299Z,15.80
2018-07-28T02:12:52.639Z,17.70
2018-07-28T02:15:22.800Z,15.67
2018-07-28T02:17:52.300Z,17.73
2018-07-28T02:20:22.315Z,16.23
2018-07-28T02:22:52.312Z,15.90
2018-07-28T02:25:22.312Z,16.13
2018-07-28T02:27:52.371Z,15.97
2018-07-28T02:30:22.601Z,16.30
2018-07-28T02:32:53.594Z,16.80
2018-07-28T02:35:23.707Z,17.20
2018-07-28T02:37:53.863Z,19.90
2018-07-28T02:40:24.266Z,17.70
2018-07-28T02:42:54.422Z,18.93
2018-07-28T02:45:24.582Z,20.10
2018-07-28T02:47:54.807Z,20.00
2018-07-28T02:50:24.990Z,18.97
2018-07-28T02:52:55.019Z,17.63
2018-07-28T02:55:25.296Z,18.07
2018-07-28T02:57:55.500Z,19.00
2018-07-28T03:00:25.683Z,17.53
2018-07-28T03:02:55.808Z,18.67
2018-07-28T03:05:25.874Z,16.50
2018-07-28T03:07:56.004Z,19.07
2018-07-28T03:10:26.209Z,18.80
2018-07-28T03:12:56.136Z,17.70
2018-07-28T03:15:31.301Z,16.37
2018-07-28T03:18:03.200Z,17.57
2018-07-28T03:20:33.592Z,17.33
2018-07-28T03:23:04.475Z,17.70
2018-07-28T03:25:34.567Z,17.43
2018-07-28T03:28:04.579Z,17.60
2018-07-28T03:30:34.607Z,18.17
2018-07-28T03:33:04.730Z,18.90
2018-07-28T03:35:34.843Z,19.77
2018-07-28T03:38:05.185Z,19.13
2018-07-28T03:40:35.526Z,18.63
2018-07-28T03:43:05.518Z,18.57
2018-07-28T03:45:35.556Z,17.90
2018-07-28T03:48:05.571Z,18.40
2018-07-28T03:50:35.563Z,18.37
2018-07-28T03:53:05.636Z,18.10
2018-07-28T03:55:35.305Z,19.97
2018-07-28T03:58:05.676Z,18.40
2018-07-28T04:00:36.908Z,17.00
2018-07-28T04:03:06.904Z,17.60
2018-07-28T04:05:36.978Z,17.60
2018-07-28T04:08:07.427Z,19.33
2018-07-28T04:10:38.429Z,19.30
2018-07-28T04:13:08.604Z,17.17
2018-07-28T04:15:38.659Z,18.60
2018-07-28T04:18:08.385Z,17.90
2018-07-28T04:20:38.232Z,19.17
2018-07-28T04:23:08.365Z,18.93
2018-07-28T04:25:38.583Z,19.47
2018-07-28T04:28:09.216Z,20.17
2018-07-28T04:30:39.416Z,19.00
2018-07-28T04:33:10.065Z,19.70
2018-07-28T04:35:40.396Z,20.17
2018-07-28T04:38:10.412Z,17.70
2018-07-28T04:40:40.762Z,18.50
2018-07-28T04:43:10.695Z,18.73
2018-07-28T04:45:40.909Z,18.50
2018-07-28T04:48:10.952Z,19.50
2018-07-28T04:50:41.884Z,19.63
2018-07-28T04:53:13.124Z,20.20
2018-07-28T04:55:43.512Z,19.30
2018-07-28T04:58:13.774Z,21.20
2018-07-28T05:00:43.927Z,18.80
2018-07-28T05:03:13.990Z,19.27
2018-07-28T05:05:43.204Z,18.20
2018-07-28T05:08:13.367Z,19.80
2018-07-28T05:10:43.315Z,21.23
2018-07-28T05:13:12.692Z,21.50
2018-07-28T05:15:42.902Z,20.00
2018-07-28T05:18:13.090Z,21.30
2018-07-28T05:20:43.741Z,20.43
2018-07-28T05:23:13.843Z,21.70
2018-07-28T05:25:43.835Z,22.30
2018-07-28T05:28:14.256Z,21.00
2018-07-28T05:30:44.775Z,21.80
2018-07-28T05:33:15.202Z,21.47
2018-07-28T05:35:45.231Z,21.30
2018-07-28T05:38:15.585Z,20.90
2018-07-28T05:40:45.477Z,22.27
2018-07-28T05:43:15.639Z,20.70
2018-07-28T05:45:45.931Z,20.70
2018-07-28T05:48:16.544Z,21.60
2018-07-28T05:50:47.770Z,22.50
2018-07-28T05:53:17.786Z,21.57
2018-07-28T05:55:48.227Z,21.30
2018-07-28T05:58:18.714Z,21.87
2018-07-28T06:00:48.859Z,23.20
2018-07-28T06:03:19.831Z,22.47
2018-07-28T06:05:50.200Z,21.67
2018-07-28T06:08:20.365Z,22.60
2018-07-28T06:10:50.574Z,23.00
2018-07-28T06:13:20.884Z,23.37
2018-07-28T06:15:50.816Z,21.23
2018-07-28T06:18:21.007Z,22.73
2018-07-28T06:20:51.603Z,23.10
2018-07-28T06:23:22.336Z,23.00
2018-07-28T06:25:53.350Z,26.63
2018-07-28T06:28:24.323Z,28.23
2018-07-28T06:30:54.658Z,30.27
2018-07-28T06:33:25.053Z,33.17
2018-07-28T06:35:55.449Z,34.80
2018-07-28T06:38:25.053Z,36.70
2018-07-28T06:40:54.275Z,34.53
2018-07-28T06:43:25.192Z,33.70
2018-07-28T06:45:55.395Z,32.20
2018-07-28T06:48:25.314Z,28.53
2018-07-28T06:50:55.264Z,26.20
2018-07-28T06:53:25.559Z,26.90
2018-07-28T06:55:55.842Z,24.83
2018-07-28T06:58:29.804Z,25.37
2018-07-28T07:00:59.561Z,23.97
2018-07-28T07:03:29.674Z,27.73
2018-07-28T07:06:01.901Z,31.07
2018-07-28T07:08:32.034Z,28.20
2018-07-28T07:11:01.989Z,28.40
2018-07-28T07:13:32.525Z,25.53
2018-07-28T07:16:02.748Z,26.70
2018-07-28T07:18:34.046Z,25.70
2018-07-28T07:21:04.162Z,24.50
2018-07-28T07:23:34.699Z,22.13
2018-07-28T07:26:05.563Z,22.60
2018-07-28T07:28:36.924Z,23.20
2018-07-28T07:31:07.076Z,22.73
2018-07-28T07:33:36.995Z,23.27
2018-07-28T07:36:06.977Z,24.97
2018-07-28T07:38:37.415Z,25.40
2018-07-28T07:41:07.951Z,23.30
2018-07-28T07:43:38.441Z,22.50
2018-07-28T07:46:08.851Z,21.10
2018-07-28T07:48:39.424Z,20.00
2018-07-28T07:51:09.539Z,24.20
2018-07-28T07:53:40.694Z,24.50
2018-07-28T07:56:12.028Z,19.50
2018-07-28T07:58:43.274Z,18.90
2018-07-28T08:01:14.563Z,20.27
2018-07-28T08:03:46.070Z,20.70
2018-07-28T08:06:16.925Z,20.60
2018-07-28T08:08:47.236Z,22.87
2018-07-28T08:11:18.167Z,20.07
2018-07-28T08:13:49.276Z,19.43
2018-07-28T08:16:20.333Z,18.80
2018-07-28T08:18:51.164Z,17.97
2018-07-28T08:21:22.551Z,17.57
2018-07-28T08:23:53.735Z,19.40
2018-07-28T08:26:24.624Z,19.15
2018-07-28T08:28:55.312Z,17.57
2018-07-28T08:31:26.199Z,17.37
2018-07-28T08:33:56.793Z,17.60
2018-07-28T08:36:28.280Z,17.77
2018-07-28T08:38:59.596Z,16.35
2018-07-28T08:41:31.322Z,17.12
2018-07-28T08:44:03.153Z,15.72
2018-07-28T08:46:34.539Z,14.98
2018-07-28T08:49:05.926Z,13.68
2018-07-28T08:51:37.203Z,14.73
2018-07-28T08:54:07.956Z,14.55
2018-07-28T08:56:38.847Z,14.35
2018-07-28T08:59:09.529Z,14.05
2018-07-28T09:01:40.997Z,13.70
2018-07-28T09:04:12.118Z,13.55
2018-07-28T09:06:42.720Z,14.03
2018-07-28T09:09:13.496Z,14.23
2018-07-28T09:11:44.042Z,13.53
2018-07-28T09:14:15.385Z,13.75
2018-07-28T09:16:46.222Z,13.65
2018-07-28T09:19:17.441Z,14.50
2018-07-28T09:21:48.737Z,13.62
2018-07-28T09:24:19.492Z,12.82
2018-07-28T09:26:50.157Z,12.88
2018-07-28T09:29:21.432Z,14.00
2018-07-28T09:31:52.661Z,13.80
2018-07-28T09:34:23.495Z,15.38
2018-07-28T09:36:53.971Z,15.45
2018-07-28T09:39:25.077Z,15.90
2018-07-28T09:41:56.457Z,14.33
2018-07-28T09:44:27.610Z,15.08
2018-07-28T09:46:58.571Z,14.33
2018-07-28T09:49:30.141Z,15.38
2018-07-28T09:52:01.081Z,13.32
2018-07-28T09:54:31.685Z,12.90
2018-07-28T09:57:02.574Z,14.60
2018-07-28T09:59:33.401Z,14.03
2018-07-28T10:02:04.149Z,15.35
2018-07-28T10:04:35.749Z,15.15
2018-07-28T10:07:06.912Z,17.02
2018-07-28T10:09:37.945Z,17.73
2018-07-28T10:12:09.064Z,14.40
2018-07-28T10:14:40.207Z,15.45
2018-07-28T10:17:10.942Z,14.15
2018-07-28T10:19:42.088Z,14.87
2018-07-28T10:22:13.126Z,14.05
2018-07-28T10:24:44.180Z,14.60
2018-07-28T10:27:14.744Z,14.15
2018-07-28T10:29:46.143Z,14.03
2018-07-28T10:32:17.571Z,14.87
2018-07-28T10:34:48.550Z,13.72
2018-07-28T10:37:19.876Z,14.07
2018-07-28T10:39:51.402Z,12.03
2018-07-28T10:42:22.167Z,12.98
2018-07-28T10:44:52.736Z,16.32
2018-07-28T10:47:24.958Z,15.53
2018-07-28T10:49:55.560Z,14.55
2018-07-28T10:52:26.865Z,14.18
2018-07-28T10:54:58.160Z,12.93
2018-07-28T10:57:29.644Z,13.80
2018-07-28T11:00:01.064Z,12.25
2018-07-28T11:02:32.314Z,12.15
2018-07-28T11:05:02.907Z,11.90
2018-07-28T11:07:33.600Z,11.65
2018-07-28T11:10:05.051Z,12.30
2018-07-28T11:12:36.358Z,11.93
2018-07-28T11:15:09.606Z,12.95
2018-07-28T11:17:40.304Z,11.50
2018-07-28T11:20:12.116Z,13.08
2018-07-28T11:22:43.444Z,13.50
2018-07-28T11:25:14.095Z,13.72
2018-07-28T11:27:44.667Z,11.68
2018-07-28T11:30:15.741Z,12.40
2018-07-28T11:32:57.030Z,12.85
2018-07-28T11:35:38.576Z,12.63
2018-07-28T11:38:22.648Z,15.05
2018-07-28T11:41:04.229Z,11.97
2018-07-28T11:43:45.452Z,12.00
2018-07-28T11:46:16.545Z,13.05
2018-07-28T11:48:46.433Z,13.35
2018-07-28T11:51:18.560Z,13.90
2018-07-28T11:53:49.256Z,13.08
2018-07-28T11:56:20.086Z,13.95
2018-07-28T11:58:51.147Z,12.75
2018-07-28T12:01:21.827Z,14.45
2018-07-28T12:03:52.810Z,13.75
2018-07-28T12:06:23.827Z,13.00
2018-07-28T12:08:54.783Z,13.28
2018-07-28T12:11:25.124Z,13.83
2018-07-28T12:13:55.736Z,13.18
2018-07-28T12:16:26.659Z,13.45
2018-07-28T12:18:57.713Z,12.30
2018-07-28T12:21:28.811Z,13.43
2018-07-28T12:24:00.338Z,12.35
2018-07-28T12:26:31.175Z,11.57
2018-07-28T12:29:02.000Z,11.60
2018-07-28T12:31:32.931Z,12.50
2018-07-28T12:34:03.284Z,13.38
2018-07-28T12:36:34.786Z,12.00
2018-07-28T12:39:07.719Z,12.88
2018-07-28T12:41:39.281Z,11.55
2018-07-28T12:44:10.525Z,11.35
2018-07-28T12:46:41.965Z,12.70
2018-07-28T12:49:13.218Z,13.00
2018-07-28T12:51:44.589Z,12.73
2018-07-28T12:54:15.771Z,12.28
2018-07-28T12:56:46.922Z,12.30
2018-07-28T12:59:17.238Z,11.75
2018-07-28T13:01:48.133Z,12.65
2018-07-28T13:04:19.742Z,14.00
2018-07-28T13:06:50.278Z,12.73
2018-07-28T13:09:22.444Z,12.88
2018-07-28T13:11:53.714Z,11.83
2018-07-28T13:14:24.721Z,11.45
2018-07-28T13:16:56.362Z,12.30
2018-07-28T13:19:28.068Z,11.95
2018-07-28T13:21:59.289Z,11.10
2018-07-28T13:24:30.824Z,11.12
2018-07-28T13:27:02.453Z,12.35
2018-07-28T13:29:33.343Z,11.80
2018-07-28T13:32:04.598Z,12.20
2018-07-28T13:34:35.916Z,11.38
2018-07-28T13:37:07.011Z,11.68
2018-07-28T13:39:38.612Z,11.70
2018-07-28T13:42:09.898Z,12.60
2018-07-28T13:44:40.753Z,12.30
2018-07-28T13:47:11.977Z,12.20
2018-07-28T13:49:43.361Z,11.30
2018-07-28T13:52:14.305Z,12.10
2018-07-28T13:54:45.788Z,11.22
2018-07-28T13:57:16.859Z,12.47
2018-07-28T13:59:47.813Z,11.90
2018-07-28T14:02:19.847Z,13.03
2018-07-28T14:04:51.279Z,12.37
2018-07-28T14:07:22.534Z,13.35
2018-07-28T14:09:53.780Z,12.60
2018-07-28T14:12:24.864Z,13.03
2018-07-28T14:14:56.021Z,15.03
2018-07-28T14:17:26.774Z,13.30
2018-07-28T14:19:57.614Z,13.10
2018-07-28T14:22:28.871Z,13.32
2018-07-28T14:24:59.929Z,13.22
2018-07-28T14:27:31.373Z,13.62
2018-07-28T14:30:02.357Z,13.20
2018-07-28T14:32:33.131Z,13.70
2018-07-28T14:35:04.060Z,13.30
2018-07-28T14:37:33.892Z,12.40
2018-07-28T14:40:04.843Z,20.27
2018-07-28T14:42:36.354Z,12.70
2018-07-28T14:45:08.778Z,12.80
2018-07-28T14:47:40.061Z,11.50
2018-07-28T14:50:11.280Z,12.17
2018-07-28T14:52:42.235Z,12.85
2018-07-28T14:55:13.520Z,12.07
2018-07-28T14:57:44.677Z,11.95
2018-07-28T15:00:16.272Z,12.98
2018-07-28T15:02:47.110Z,11.78
2018-07-28T15:05:18.752Z,12.10
2018-07-28T15:07:50.061Z,13.27
2018-07-28T15:10:21.501Z,12.90
2018-07-28T15:12:53.330Z,12.70
2018-07-28T15:15:24.649Z,12.57
2018-07-28T15:17:55.972Z,12.60
2018-07-28T15:20:27.224Z,12.80
2018-07-28T15:22:58.481Z,13.10
2018-07-28T15:25:29.907Z,12.37
2018-07-28T15:28:01.173Z,13.23
2018-07-28T15:30:32.587Z,13.20
2018-07-28T15:33:03.628Z,14.00
2018-07-28T15:35:34.549Z,13.20
2018-07-28T15:38:06.126Z,13.83
2018-07-28T15:40:37.198Z,15.43
2018-07-28T15:43:08.376Z,19.47
2018-07-28T15:45:39.645Z,21.47
2018-07-28T15:48:13.248Z,17.43
2018-07-28T15:50:44.322Z,17.03
2018-07-28T15:53:15.199Z,14.20
2018-07-28T15:55:46.234Z,15.33
2018-07-28T15:58:18.718Z,14.73
2018-07-28T16:00:50.584Z,14.27
2018-07-28T16:03:22.119Z,14.07
2018-07-28T16:05:52.921Z,14.50
2018-07-28T16:08:24.231Z,14.07
2018-07-28T16:10:55.562Z,14.63
2018-07-28T16:13:26.538Z,14.77
2018-07-28T16:15:58.317Z,13.40
2018-07-28T16:18:29.708Z,14.77
2018-07-28T16:21:01.526Z,13.60
2018-07-28T16:23:32.714Z,13.40
2018-07-28T16:26:03.974Z,13.10
2018-07-28T16:28:34.096Z,13.40
2018-07-28T16:31:05.860Z,13.77
2018-07-28T16:33:37.159Z,13.80
2018-07-28T16:36:08.814Z,13.43
2018-07-28T16:38:39.888Z,13.73
2018-07-28T16:41:11.181Z,14.83
2018-07-28T16:43:42.112Z,14.03
2018-07-28T16:46:12.740Z,14.00
2018-07-28T16:48:43.604Z,14.70
2018-07-28T16:51:14.940Z,14.57
2018-07-28T16:53:46.433Z,13.70
2018-07-28T16:56:17.570Z,14.00
2018-07-28T16:58:48.591Z,14.50
2018-07-28T17:01:19.928Z,13.90
2018-07-28T17:03:50.887Z,13.30
2018-07-28T17:06:22.000Z,13.03
2018-07-28T17:08:53.146Z,13.43
2018-07-28T17:11:24.338Z,14.30
2018-07-28T17:13:55.648Z,14.00
2018-07-28T17:16:27.464Z,14.43
2018-07-28T17:18:58.485Z,14.70
2018-07-28T17:21:30.607Z,15.63
2018-07-28T17:24:01.821Z,14.60
2018-07-28T17:26:31.912Z,14.50
2018-07-28T17:29:03.730Z,14.03
2018-07-28T17:31:34.823Z,14.90
2018-07-28T17:34:06.354Z,14.03
2018-07-28T17:36:37.526Z,15.00
2018-07-28T17:39:10.075Z,15.23
2018-07-28T17:41:42.076Z,14.77
2018-07-28T17:44:13.069Z,14.93
2018-07-28T17:46:44.707Z,15.00
2018-07-28T17:49:15.849Z,15.50
2018-07-28T17:51:47.225Z,15.40
2018-07-28T17:54:18.507Z,14.80
2018-07-28T17:56:49.846Z,36.23
2018-07-28T17:59:20.850Z,18.87
2018-07-28T18:01:52.028Z,15.07
2018-07-28T18:04:23.273Z,17.07
2018-07-28T18:06:54.668Z,27.47
2018-07-28T18:09:26.006Z,15.60
2018-07-28T18:11:57.317Z,15.37
2018-07-28T18:14:27.971Z,20.40
2018-07-28T18:16:59.155Z,19.33
2018-07-28T18:19:30.366Z,17.60
2018-07-28T18:22:02.148Z,18.50
2018-07-28T18:24:33.412Z,20.03
2018-07-28T18:27:04.316Z,19.47
2018-07-28T18:29:34.863Z,22.83
2018-07-28T18:32:05.506Z,16.90
2018-07-28T18:34:35.823Z,15.60
2018-07-28T18:37:06.679Z,16.40
2018-07-28T18:39:37.379Z,17.13
2018-07-28T18:42:08.476Z,16.23
2018-07-28T18:44:39.182Z,16.27
2018-07-28T18:47:10.006Z,16.93
2018-07-28T18:49:40.875Z,15.57
2018-07-28T18:52:12.223Z,16.03
2018-07-28T18:54:43.069Z,15.87
2018-07-28T18:57:13.949Z,14.80
2018-07-28T18:59:44.945Z,15.30
2018-07-28T19:02:15.415Z,16.10
2018-07-28T19:04:46.165Z,15.57
2018-07-28T19:07:17.276Z,16.70
2018-07-28T19:09:53.053Z,18.07
2018-07-28T19:12:29.074Z,17.20
2018-07-28T19:14:59.852Z,18.10
2018-07-28T19:17:35.199Z,24.10
2018-07-28T19:20:06.655Z,16.87
2018-07-28T19:22:43.536Z,47.33
2018-07-28T19:25:14.727Z,19.53
2018-07-28T19:27:50.467Z,18.97
2018-07-28T19:30:21.532Z,19.33
2018-07-28T19:32:52.314Z,17.83
2018-07-28T19:35:23.494Z,19.60
2018-07-28T19:37:55.032Z,17.87
2018-07-28T19:40:25.857Z,18.33
2018-07-28T19:42:56.603Z,18.40
2018-07-28T19:45:26.400Z,17.90
2018-07-28T19:47:58.220Z,19.90
2018-07-28T19:50:29.186Z,20.80
2018-07-28T19:53:00.043Z,17.57
2018-07-28T19:55:31.423Z,18.77
2018-07-28T19:58:02.269Z,16.30
2018-07-28T20:00:32.957Z,16.40
2018-07-28T20:03:04.517Z,16.53
2018-07-28T20:05:35.451Z,16.57
2018-07-28T20:08:06.361Z,16.20
2018-07-28T20:10:37.021Z,15.90
2018-07-28T20:13:07.214Z,16.93
2018-07-28T20:15:38.279Z,17.20
2018-07-28T20:18:09.805Z,17.40
2018-07-28T20:20:41.991Z,17.40
2018-07-28T20:23:13.467Z,17.50
2018-07-28T20:25:44.212Z,17.50
2018-07-28T20:28:15.814Z,19.80
2018-07-28T20:30:46.637Z,24.10
2018-07-28T20:33:17.866Z,24.00
2018-07-28T20:35:49.870Z,24.40
2018-07-28T20:38:21.009Z,25.23
2018-07-28T20:40:52.514Z,23.50
2018-07-28T20:43:23.564Z,23.90
2018-07-28T20:45:55.192Z,23.57
2018-07-28T20:48:26.378Z,23.40
2018-07-28T20:50:57.761Z,24.60
2018-07-28T20:53:30.246Z,23.73
2018-07-28T20:56:01.163Z,23.10
2018-07-28T20:58:31.986Z,22.53
2018-07-28T21:01:02.864Z,23.13
2018-07-28T21:03:34.018Z,21.03
2018-07-28T21:06:05.657Z,22.40
2018-07-28T21:08:36.018Z,23.50
2018-07-28T21:11:06.869Z,23.00
2018-07-28T21:13:37.974Z,23.13
2018-07-28T21:16:09.488Z,22.50
2018-07-28T21:18:40.673Z,22.43
2018-07-28T21:21:11.902Z,21.83
2018-07-28T21:23:42.814Z,21.47
2018-07-28T21:26:13.532Z,21.70
2018-07-28T21:28:44.324Z,23.17
2018-07-28T21:31:15.526Z,22.60
2018-07-28T21:33:47.010Z,22.87
2018-07-28T21:36:17.879Z,23.67
2018-07-28T21:38:48.715Z,23.70
2018-07-28T21:41:19.831Z,25.10
2018-07-28T21:43:51.033Z,25.23
2018-07-28T21:46:21.932Z,23.70
2018-07-28T21:48:54.381Z,21.50
2018-07-28T21:51:25.266Z,24.30
2018-07-28T21:53:56.636Z,24.90
2018-07-28T21:56:27.681Z,23.70
2018-07-28T21:58:58.425Z,23.77
2018-07-28T22:01:29.067Z,22.60
2018-07-28T22:04:03.981Z,22.33
2018-07-28T22:06:35.776Z,22.10
2018-07-28T22:09:07.740Z,23.83
2018-07-28T22:11:39.300Z,22.30
2018-07-28T22:14:09.723Z,23.10
2018-07-28T22:16:40.126Z,22.00
2018-07-28T22:19:11.702Z,23.87
2018-07-28T22:21:42.164Z,22.57
2018-07-28T22:24:13.085Z,23.57
2018-07-28T22:26:43.811Z,22.30
2018-07-28T22:29:14.631Z,23.10
2018-07-28T22:31:45.149Z,22.70
2018-07-28T22:34:15.605Z,23.00
2018-07-28T22:36:46.022Z,22.90
2018-07-28T22:39:17.064Z,23.33
2018-07-28T22:41:48.714Z,21.40
2018-07-28T22:44:19.509Z,22.10
2018-07-28T22:46:50.571Z,24.53
2018-07-28T22:49:21.984Z,25.30
2018-07-28T22:51:52.671Z,23.30
2018-07-28T22:54:24.107Z,23.93
2018-07-28T22:56:54.830Z,25.53
2018-07-28T22:59:25.238Z,27.23
2018-07-28T23:01:55.812Z,23.80
2018-07-28T23:04:26.512Z,23.77
2018-07-28T23:06:57.176Z,24.00
2018-07-28T23:09:27.006Z,23.57
2018-07-28T23:11:57.066Z,23.30
2018-07-28T23:14:27.455Z,24.33
2018-07-28T23:16:57.467Z,24.47
2018-07-28T23:19:28.039Z,23.03
2018-07-28T23:21:58.013Z,23.17
2018-07-28T23:24:28.400Z,21.90
2018-07-28T23:26:57.579Z,22.57
2018-07-28T23:29:27.693Z,22.13
2018-07-28T23:31:57.762Z,22.10
2018-07-28T23:34:28.085Z,20.90
2018-07-28T23:36:59.123Z,21.63
2018-07-28T23:39:29.331Z,22.33
2018-07-28T23:41:59.423Z,21.43
2018-07-28T23:44:29.263Z,22.20
2018-07-28T23:46:59.351Z,21.03
2018-07-28T23:49:29.262Z,21.47
2018-07-28T23:51:59.524Z,21.60
2018-07-28T23:54:29.783Z,20.47
2018-07-28T23:56:59.989Z,22.00
2018-07-28T23:59:30.285Z,21.13
